createdAt,value
2019-05-07T00:01:27.280Z,6.80
2019-05-07T00:04:52.150Z,6.80
2019-05-07T00:08:15.537Z,6.80
2019-05-07T00:11:38.598Z,6.70
2019-05-07T00:15:04.460Z,6.70
2019-05-07T00:18:26.925Z,6.70
2019-05-07T00:21:50.001Z,6.70
2019-05-07T00:25:13.148Z,6.60
2019-05-07T00:28:36.130Z,6.60
2019-05-07T00:31:59.256Z,6.70
2019-05-07T00:35:26.045Z,6.70
2019-05-07T00:38:53.815Z,6.70
2019-05-07T00:42:36.499Z,6.70
2019-05-07T00:46:03.661Z,6.70
2019-05-07T00:49:28.027Z,6.70
2019-05-07T00:52:52.406Z,6.70
2019-05-07T00:56:15.651Z,6.70
2019-05-07T00:59:38.673Z,6.60
2019-05-07T01:03:03.035Z,6.60
2019-05-07T01:06:26.948Z,6.60
2019-05-07T01:09:52.203Z,6.70
2019-05-07T01:13:15.195Z,6.70
2019-05-07T01:16:38.210Z,6.70
2019-05-07T01:20:02.957Z,6.60
2019-05-07T01:23:26.156Z,6.60
2019-05-07T01:26:49.186Z,6.50
2019-05-07T01:30:13.982Z,6.50
2019-05-07T01:33:44.139Z,6.50
2019-05-07T01:37:07.117Z,6.50
2019-05-07T01:40:32.269Z,6.50
2019-05-07T01:43:55.010Z,6.40
2019-05-07T01:47:18.998Z,6.30
2019-05-07T01:50:42.967Z,6.20
2019-05-07T01:54:06.519Z,6.00
2019-05-07T01:57:29.964Z,5.90
2019-05-07T02:00:53.286Z,5.80
2019-05-07T02:04:35.936Z,5.70
2019-05-07T02:08:03.504Z,5.60
2019-05-07T02:11:32.786Z,5.50
2019-05-07T02:14:55.941Z,5.30
2019-05-07T02:18:18.903Z,5.20
2019-05-07T02:21:42.474Z,5.20
2019-05-07T02:25:06.550Z,5.10
2019-05-07T02:28:32.922Z,4.90
2019-05-07T02:31:56.222Z,4.90
2019-05-07T02:35:19.457Z,4.80
2019-05-07T02:38:53.118Z,4.70
2019-05-07T02:42:16.131Z,4.60
2019-05-07T02:45:53.586Z,4.60
2019-05-07T02:49:35.634Z,4.50
2019-05-07T02:53:25.735Z,4.50
2019-05-07T02:56:48.716Z,4.60
2019-05-07T03:00:14.663Z,4.70
2019-05-07T03:03:36.937Z,4.80
2019-05-07T03:06:59.890Z,4.90
2019-05-07T03:10:23.931Z,5.00
2019-05-07T03:13:47.453Z,5.00
2019-05-07T03:17:13.288Z,5.10
2019-05-07T03:20:47.800Z,5.10
2019-05-07T03:24:18.398Z,5.10
2019-05-07T03:27:43.100Z,5.00
2019-05-07T03:31:16.687Z,5.00
2019-05-07T03:34:58.269Z,5.10
2019-05-07T03:38:22.909Z,5.10
2019-05-07T03:41:46.259Z,5.10
2019-05-07T03:45:28.978Z,5.10
2019-05-07T03:48:53.115Z,5.10
2019-05-07T03:52:16.446Z,5.10
2019-05-07T03:55:39.427Z,5.10
2019-05-07T03:59:03.578Z,5.10
2019-05-07T04:02:26.711Z,5.20
2019-05-07T04:05:52.777Z,5.20
2019-05-07T04:09:14.945Z,5.20
2019-05-07T04:12:38.017Z,5.30
2019-05-07T04:16:03.854Z,5.40
2019-05-07T04:19:26.291Z,5.50
2019-05-07T04:22:49.543Z,5.60
2019-05-07T04:26:33.983Z,5.60
2019-05-07T04:29:57.982Z,5.70
2019-05-07T04:33:23.815Z,5.80
2019-05-07T04:36:48.529Z,5.90
2019-05-07T04:40:13.508Z,6.00
2019-05-07T04:43:36.585Z,6.10
2019-05-07T04:47:00.057Z,6.20
2019-05-07T04:50:41.428Z,6.30
2019-05-07T04:53:54.050Z,6.30
2019-05-07T04:57:34.364Z,6.30
2019-05-07T05:00:57.892Z,6.40
2019-05-07T05:04:33.511Z,6.50
2019-05-07T05:07:54.527Z,6.60
2019-05-07T05:11:17.971Z,6.70
2019-05-07T05:14:43.658Z,6.80
2019-05-07T05:18:06.500Z,7.00
2019-05-07T05:21:56.975Z,7.00
2019-05-07T05:25:27.992Z,7.10
2019-05-07T05:28:52.552Z,7.10
2019-05-07T05:32:15.867Z,7.20
2019-05-07T05:35:39.006Z,7.20
2019-05-07T05:39:02.609Z,7.40
2019-05-07T05:42:34.451Z,7.60
2019-05-07T05:45:59.756Z,7.80
2019-05-07T05:49:23.085Z,7.80
2019-05-07T05:52:52.117Z,7.90
2019-05-07T05:56:22.848Z,8.10
2019-05-07T05:59:55.499Z,8.20
2019-05-07T06:03:36.396Z,8.30
2019-05-07T06:07:22.736Z,8.30
2019-05-07T06:11:02.255Z,8.40
2019-05-07T06:14:35.422Z,8.40
2019-05-07T06:18:18.848Z,8.40
2019-05-07T06:21:52.607Z,8.50
2019-05-07T06:25:19.061Z,8.50
2019-05-07T06:28:42.624Z,8.50
2019-05-07T06:32:07.810Z,8.40
2019-05-07T06:35:32.483Z,8.40
2019-05-07T06:39:03.481Z,8.40
2019-05-07T06:42:52.246Z,8.40
2019-05-07T06:46:15.318Z,8.50
2019-05-07T06:49:38.583Z,8.70
2019-05-07T06:53:02.657Z,8.90
2019-05-07T06:56:26.129Z,9.00
2019-05-07T06:59:53.415Z,9.20
2019-05-07T07:03:26.439Z,9.30
2019-05-07T07:07:26.162Z,9.40
2019-05-07T07:10:59.438Z,9.50
2019-05-07T07:14:22.854Z,9.60
2019-05-07T07:17:45.926Z,9.60
2019-05-07T07:21:09.141Z,9.80
2019-05-07T07:24:33.011Z,9.90
2019-05-07T07:27:56.267Z,10.10
2019-05-07T07:35:23.649Z,10.10
2019-05-07T07:38:46.905Z,10.10
2019-05-07T07:42:12.366Z,10.20
2019-05-07T07:45:35.730Z,10.30
2019-05-07T07:49:07.840Z,10.50
2019-05-07T07:52:23.807Z,10.60
2019-05-07T07:56:05.337Z,10.80
2019-05-07T07:59:52.920Z,10.90
2019-05-07T08:03:16.105Z,11.20
2019-05-07T08:06:41.807Z,11.40
2019-05-07T08:10:05.454Z,11.50
2019-05-07T08:13:28.614Z,11.70
2019-05-07T08:16:52.847Z,11.70
2019-05-07T08:20:18.517Z,11.70
2019-05-07T08:23:42.371Z,11.60
2019-05-07T08:27:05.648Z,11.60
2019-05-07T08:30:32.632Z,11.80
2019-05-07T08:34:05.095Z,12.00
2019-05-07T08:37:28.192Z,12.10
2019-05-07T08:40:52.125Z,12.10
2019-05-07T08:44:18.909Z,12.30
2019-05-07T08:47:46.397Z,12.40
2019-05-07T08:51:11.786Z,12.40
2019-05-07T08:54:34.687Z,12.40
2019-05-07T08:57:57.786Z,12.50
2019-05-07T09:01:21.844Z,12.80
2019-05-07T09:04:45.110Z,12.90
2019-05-07T09:08:08.607Z,12.90
2019-05-07T09:11:32.057Z,12.60
2019-05-07T09:14:57.466Z,12.30
2019-05-07T09:18:22.895Z,12.30
2019-05-07T09:21:45.844Z,12.40
2019-05-07T09:25:09.130Z,12.50
2019-05-07T09:28:54.881Z,12.70
2019-05-07T09:32:29.046Z,12.80
2019-05-07T09:35:53.562Z,12.70
2019-05-07T09:39:17.058Z,12.60
2019-05-07T09:42:42.077Z,12.40
2019-05-07T09:46:05.064Z,12.70
2019-05-07T09:49:28.068Z,13.00
2019-05-07T09:52:51.820Z,13.30
2019-05-07T09:56:15.493Z,13.60
2019-05-07T09:59:38.530Z,13.90
2019-05-07T10:03:01.733Z,14.40
2019-05-07T10:06:27.605Z,15.00
2019-05-07T10:09:52.275Z,15.70
2019-05-07T10:13:41.998Z,15.50
2019-05-07T10:17:22.349Z,15.10
2019-05-07T10:20:45.380Z,14.00
2019-05-07T10:24:08.532Z,13.30
2019-05-07T10:27:32.422Z,12.80
2019-05-07T10:30:58.241Z,12.20
2019-05-07T10:34:22.833Z,11.90
2019-05-07T10:37:46.223Z,11.80
2019-05-07T10:41:12.161Z,11.80
2019-05-07T10:44:45.062Z,11.90
2019-05-07T10:48:36.843Z,12.10
2019-05-07T10:52:02.048Z,12.20
2019-05-07T10:55:27.242Z,12.20
2019-05-07T10:58:52.166Z,12.30
2019-05-07T11:02:21.954Z,12.50
2019-05-07T11:05:45.331Z,12.90
2019-05-07T11:09:08.462Z,13.10
2019-05-07T11:12:32.055Z,13.30
2019-05-07T11:16:05.438Z,13.40
2019-05-07T11:19:28.777Z,13.50
2019-05-07T11:22:52.300Z,13.60
2019-05-07T11:26:15.727Z,13.50
2019-05-07T11:29:38.770Z,13.90
2019-05-07T11:33:02.700Z,14.30
2019-05-07T11:36:28.929Z,14.50
2019-05-07T11:39:52.369Z,14.60
2019-05-07T11:43:33.913Z,14.80
2019-05-07T11:47:25.675Z,14.90
2019-05-07T11:51:03.743Z,14.60
2019-05-07T11:54:20.094Z,14.90
2019-05-07T11:57:44.414Z,15.20
2019-05-07T12:01:13.793Z,15.40
2019-05-07T12:04:36.823Z,15.50
2019-05-07T12:08:02.199Z,15.50
2019-05-07T12:11:25.183Z,16.00
2019-05-07T12:14:48.309Z,16.70
2019-05-07T12:18:12.682Z,16.90
2019-05-07T12:21:35.871Z,17.30
2019-05-07T12:24:58.984Z,17.50
2019-05-07T12:28:22.664Z,17.70
2019-05-07T12:32:08.116Z,18.10
2019-05-07T12:35:31.322Z,18.00
2019-05-07T12:38:55.820Z,18.90
2019-05-07T12:42:18.844Z,19.50
2019-05-07T12:45:42.312Z,23.50
2019-05-07T12:49:06.830Z,24.00
2019-05-07T12:52:49.450Z,24.30
2019-05-07T12:56:12.478Z,24.60
2019-05-07T12:59:35.606Z,23.20
2019-05-07T13:03:10.084Z,21.80
2019-05-07T13:06:36.791Z,21.20
2019-05-07T13:09:59.872Z,21.00
2019-05-07T13:13:23.009Z,21.00
2019-05-07T13:16:46.253Z,21.10
2019-05-07T13:20:09.651Z,22.20
2019-05-07T13:23:32.654Z,23.30
2019-05-07T13:26:55.854Z,23.60
2019-05-07T13:30:19.552Z,23.40
2019-05-07T13:33:43.641Z,22.60
2019-05-07T13:37:12.787Z,22.10
2019-05-07T13:40:54.727Z,21.70
2019-05-07T13:44:31.901Z,21.70
2019-05-07T13:48:23.348Z,21.40
2019-05-07T13:52:02.533Z,20.90
2019-05-07T13:55:13.567Z,20.80
2019-05-07T13:58:36.531Z,20.80
2019-05-07T14:02:06.980Z,20.20
2019-05-07T14:05:32.244Z,19.20
2019-05-07T14:08:56.718Z,18.00
2019-05-07T14:12:20.122Z,17.10
2019-05-07T14:16:02.942Z,16.10
2019-05-07T14:19:26.684Z,15.50
2019-05-07T14:22:51.710Z,14.90
2019-05-07T14:26:15.213Z,14.50
2019-05-07T14:29:38.641Z,14.50
2019-05-07T14:33:12.409Z,14.50
2019-05-07T14:36:45.787Z,14.40
2019-05-07T14:40:12.754Z,14.50
2019-05-07T14:43:41.928Z,14.70
2019-05-07T14:47:05.389Z,14.70
2019-05-07T14:50:28.863Z,14.90
2019-05-07T14:53:52.402Z,14.80
2019-05-07T14:57:15.965Z,14.80
2019-05-07T15:00:39.616Z,15.00
2019-05-07T15:04:03.469Z,15.00
2019-05-07T15:07:28.418Z,15.10
2019-05-07T15:10:52.514Z,15.30
2019-05-07T15:14:15.794Z,15.40
2019-05-07T15:17:45.554Z,15.80
2019-05-07T15:21:12.325Z,15.90
2019-05-07T15:24:36.943Z,16.10
2019-05-07T15:28:01.810Z,16.40
2019-05-07T15:31:43.383Z,16.80
2019-05-07T15:35:07.050Z,17.20
2019-05-07T15:38:32.410Z,18.00
2019-05-07T15:41:55.922Z,18.90
2019-05-07T15:45:19.066Z,20.50
2019-05-07T15:48:42.138Z,21.70
2019-05-07T15:52:12.438Z,24.80
2019-05-07T15:55:35.800Z,26.90
2019-05-07T15:59:09.765Z,26.30
2019-05-07T16:03:29.226Z,25.30
2019-05-07T16:08:08.168Z,23.20
2019-05-07T16:16:19.404Z,25.10
2019-05-07T16:19:44.532Z,25.10
2019-05-07T16:23:14.718Z,25.90
2019-05-07T16:26:54.192Z,25.30
2019-05-07T16:30:40.280Z,23.60
2019-05-07T16:34:03.811Z,21.30
2019-05-07T16:37:26.949Z,19.60
2019-05-07T16:40:52.028Z,18.60
2019-05-07T16:44:15.123Z,17.80
2019-05-07T16:47:38.155Z,17.90
2019-05-07T16:51:02.348Z,18.50
2019-05-07T16:54:25.828Z,18.30
2019-05-07T16:58:03.150Z,17.60
2019-05-07T17:01:26.329Z,17.00
2019-05-07T17:05:06.039Z,16.30
2019-05-07T17:08:55.924Z,15.90
2019-05-07T17:12:21.949Z,15.40
2019-05-07T17:15:55.194Z,15.30
2019-05-07T17:19:18.661Z,15.10
2019-05-07T17:22:42.709Z,15.00
2019-05-07T17:26:06.124Z,14.90
2019-05-07T17:29:29.317Z,14.70
2019-05-07T17:32:52.918Z,14.50
2019-05-07T17:36:16.002Z,14.30
2019-05-07T17:39:39.163Z,14.20
2019-05-07T17:43:03.124Z,13.90
2019-05-07T17:46:26.948Z,13.70
2019-05-07T17:49:52.530Z,13.70
2019-05-07T17:53:15.460Z,13.70
2019-05-07T17:56:38.928Z,13.80
2019-05-07T18:00:02.367Z,13.70
2019-05-07T18:03:32.984Z,13.70
2019-05-07T18:07:00.413Z,13.60
2019-05-07T18:10:23.531Z,13.60
2019-05-07T18:13:46.700Z,13.50
2019-05-07T18:17:29.668Z,13.30
2019-05-07T18:20:52.955Z,13.10
2019-05-07T18:24:16.903Z,12.90
2019-05-07T18:27:42.051Z,12.70
2019-05-07T18:35:03.714Z,12.40
2019-05-07T18:38:27.197Z,12.20
2019-05-07T18:41:52.148Z,12.10
2019-05-07T18:45:17.962Z,11.80
2019-05-07T18:48:42.694Z,11.50
2019-05-07T18:52:06.122Z,11.30
2019-05-07T18:55:30.015Z,11.10
2019-05-07T18:58:53.235Z,10.80
2019-05-07T19:02:16.885Z,10.60
2019-05-07T19:05:42.290Z,10.30
2019-05-07T19:09:08.007Z,10.00
2019-05-07T19:12:36.423Z,9.70
2019-05-07T19:16:00.126Z,9.60
2019-05-07T19:19:23.506Z,9.40
2019-05-07T19:22:53.205Z,9.20
2019-05-07T19:26:21.101Z,9.00
2019-05-07T19:29:46.950Z,8.80
2019-05-07T19:33:12.160Z,8.70
2019-05-07T19:36:36.964Z,8.60
2019-05-07T19:40:02.042Z,8.60
2019-05-07T19:43:26.749Z,8.40
2019-05-07T19:46:52.455Z,8.30
2019-05-07T19:50:18.643Z,8.20
2019-05-07T19:53:42.125Z,8.10
2019-05-07T19:57:06.022Z,8.10
2019-05-07T20:00:29.651Z,8.00
2019-05-07T20:03:53.337Z,8.00
2019-05-07T20:07:19.468Z,8.00
2019-05-07T20:10:54.824Z,8.10
2019-05-07T20:14:22.269Z,8.20
2019-05-07T20:17:45.705Z,8.20
2019-05-07T20:21:08.922Z,8.20
2019-05-07T20:24:33.000Z,8.20
2019-05-07T20:27:56.643Z,8.20
2019-05-07T20:31:22.671Z,8.20
2019-05-07T20:34:48.809Z,8.20
2019-05-07T20:38:12.642Z,8.30
2019-05-07T20:41:35.903Z,8.20
2019-05-07T20:44:59.227Z,8.20
2019-05-07T20:48:22.771Z,8.10
2019-05-07T20:51:45.985Z,8.00
2019-05-07T20:55:35.988Z,7.90
2019-05-07T20:58:59.138Z,7.80
2019-05-07T21:02:22.818Z,7.80
2019-05-07T21:05:48.951Z,7.70
2019-05-07T21:09:12.773Z,7.60
2019-05-07T21:12:37.390Z,7.60
2019-05-07T21:16:03.059Z,7.60
2019-05-07T21:19:26.158Z,7.60
2019-05-07T21:22:49.331Z,7.60
2019-05-07T21:26:13.264Z,7.60
2019-05-07T21:29:36.746Z,7.70
2019-05-07T21:32:59.903Z,7.70
2019-05-07T21:36:23.031Z,7.80
2019-05-07T21:39:46.155Z,7.80
2019-05-07T21:43:12.042Z,7.80
2019-05-07T21:46:35.518Z,7.80
2019-05-07T21:49:58.591Z,7.70
2019-05-07T21:53:27.639Z,7.70
2019-05-07T21:57:12.651Z,7.60
2019-05-07T22:01:02.058Z,7.60
2019-05-07T22:04:26.483Z,7.70
2019-05-07T22:07:49.740Z,7.80
2019-05-07T22:11:26.012Z,7.80
2019-05-07T22:14:49.188Z,8.00
2019-05-07T22:18:12.319Z,8.00
2019-05-07T22:21:35.539Z,8.10
2019-05-07T22:25:04.939Z,8.20
2019-05-07T22:28:28.008Z,8.30
2019-05-07T22:32:04.173Z,8.30
2019-05-07T22:35:39.452Z,8.40
2019-05-07T22:39:16.864Z,8.50
2019-05-07T22:42:41.889Z,8.60
2019-05-07T22:46:05.035Z,8.70
2019-05-07T22:49:28.185Z,8.70
2019-05-07T22:52:52.529Z,8.70
2019-05-07T22:56:30.421Z,8.70
2019-05-07T22:59:43.310Z,8.70
2019-05-07T23:03:06.492Z,8.70
2019-05-07T23:06:29.966Z,8.70
2019-05-07T23:09:53.091Z,8.70
2019-05-07T23:13:17.317Z,8.80
2019-05-07T23:16:40.422Z,8.80
2019-05-07T23:20:03.701Z,8.80
2019-05-07T23:23:26.720Z,8.80
2019-05-07T23:26:51.177Z,8.90
2019-05-07T23:30:15.181Z,8.90
2019-05-07T23:33:38.297Z,8.90
2019-05-07T23:37:02.506Z,8.90
2019-05-07T23:40:48.135Z,8.90
2019-05-07T23:44:18.165Z,8.90
2019-05-07T23:47:44.420Z,8.90
2019-05-07T23:51:07.069Z,8.80
2019-05-07T23:54:31.879Z,8.80
2019-05-07T23:57:55.132Z,8.70
